TimeAEST,TemperatureF,Dew PointF,Humidity,Sea Level PressureIn,VisibilityMPH,Wind Direction,Wind SpeedMPH,Gust SpeedMPH,PrecipitationIn,Events,Conditions,WindDirDegrees,DateUTC
12:00 AM,40,35,74,29.96,19,West,11.5,,,,Partly Cloudy,280,2013-08-19 14:00:00
12:00 AM,41.0,33.8,76,29.95,6.2,West,11.5,-,N/A,,Partly Cloudy,280,2013-08-19 14:00:00
12:30 AM,39.2,33.8,81,29.95,-9999.0,West,8.1,-,N/A,,Clear,280,2013-08-19 14:30:00
1:00 AM,40,35,75,29.97,,West,11.5,,,,,280,2013-08-19 15:00:00
1:00 AM,41.0,35.6,81,29.95,-9999.0,West,11.5,-,N/A,,Clear,280,2013-08-19 15:00:00
1:30 AM,41.0,35.6,81,29.95,-9999.0,West,11.5,-,N/A,,Clear,270,2013-08-19 15:30:00
2:00 AM,40,35,75,29.97,,West,16.1,,,,,260,2013-08-19 16:00:00
2:00 AM,41.0,35.6,81,29.95,6.2,West,16.1,-,N/A,,Scattered Clouds,260,2013-08-19 16:00:00
2:30 AM,41.0,35.6,81,29.95,6.2,West,13.8,-,N/A,,Mostly Cloudy,280,2013-08-19 16:30:00
3:00 AM,39.2,33.8,81,29.95,6.2,West,15.0,-,N/A,,Scattered Clouds,280,2013-08-19 17:00:00
3:30 AM,41.0,33.8,76,29.95,6.2,West,18.4,-,N/A,,Scattered Clouds,270,2013-08-19 17:30:00
4:00 AM,39.2,33.8,81,29.95,-9999.0,West,15.0,-,N/A,,Clear,270,2013-08-19 18:00:00
4:30 AM,41.0,33.8,76,29.95,-9999.0,West,15.0,-,N/A,,Clear,280,2013-08-19 18:30:00
5:00 AM,40,33,68,29.97,,West,16.1,,,,,280,2013-08-19 19:00:00
5:00 AM,41.0,33.8,76,29.95,-9999.0,West,16.1,-,N/A,,Clear,280,2013-08-19 19:00:00
5:30 AM,41.0,33.8,76,29.95,-9999.0,West,15.0,-,N/A,,Clear,270,2013-08-19 19:30:00
6:00 AM,39.2,33.8,81,29.95,-9999.0,West,13.8,-,N/A,,Clear,280,2013-08-19 20:00:00
6:30 AM,39.2,33.8,81,29.95,-9999.0,West,16.1,-,N/A,,Clear,280,2013-08-19 20:30:00
7:00 AM,40,34,72,29.99,,West,11.5,,,,,280,2013-08-19 21:00:00
7:00 AM,41.0,33.8,76,29.98,-9999.0,West,11.5,-,N/A,,Clear,280,2013-08-19 21:00:00
7:30 AM,41.0,33.8,76,29.98,6.2,West,17.3,-,N/A,,Scattered Clouds,280,2013-08-19 21:30:00
8:00 AM,42,35,68,30.00,,WNW,15.0,,,,,290,2013-08-19 22:00:00
8:00 AM,41.0,35.6,81,29.98,6.2,WNW,15.0,-,N/A,,Scattered Clouds,290,2013-08-19 22:00:00
8:30 AM,44.6,33.8,66,29.98,6.2,West,17.3,-,N/A,,Scattered Clouds,280,2013-08-19 22:30:00
9:00 AM,46.4,35.6,66,30.01,6.2,West,19.6,-,N/A,,Scattered Clouds,270,2013-08-19 23:00:00
9:30 AM,46.4,35.6,66,30.01,6.2,West,19.6,-,N/A,,Scattered Clouds,270,2013-08-19 23:30:00
10:00 AM,48,35,50,30.02,,West,18.4,,,,,270,2013-08-20 00:00:00
10:00 AM,48.2,35.6,62,30.01,6.2,West,18.4,-,N/A,,Scattered Clouds,270,2013-08-20 00:00:00
10:30 AM,48.2,35.6,62,30.01,6.2,West,19.6,-,N/A,,Scattered Clouds,260,2013-08-20 00:30:00
11:00 AM,49,35,47,30.02,,West,18.4,,,,,260,2013-08-20 01:00:00
11:00 AM,50.0,35.6,58,30.01,6.2,West,18.4,-,N/A,,Scattered Clouds,260,2013-08-20 01:00:00
11:30 AM,48.2,35.6,62,30.01,6.2,WSW,19.6,-,N/A,,Mostly Cloudy,240,2013-08-20 01:30:00
12:00 PM,51,35,42,30.01,19,WSW,18.4,,,,Partly Cloudy,250,2013-08-20 02:00:00
12:00 PM,50.0,35.6,58,29.98,6.2,WSW,18.4,-,N/A,,Mostly Cloudy,250,2013-08-20 02:00:00
12:30 PM,50.0,37.4,62,29.98,6.2,West,18.4,-,N/A,,Mostly Cloudy,260,2013-08-20 02:30:00
1:00 PM,50,36,48,29.99,,WSW,17.3,,,,,240,2013-08-20 03:00:00
1:00 PM,50.0,35.6,58,29.98,6.2,WSW,17.3,-,N/A,,Mostly Cloudy,240,2013-08-20 03:00:00
1:30 PM,51.8,33.8,50,29.95,6.2,West,21.9,-,N/A,Rain,Light Rain Showers,260,2013-08-20 03:30:00
2:00 PM,52,35,39,29.97,,WSW,21.9,,,,,250,2013-08-20 04:00:00
2:00 PM,51.8,33.8,50,29.95,6.2,WSW,21.9,-,N/A,Rain,Light Rain Showers,250,2013-08-20 04:00:00
2:06 PM,51.8,33.8,50,29.95,3.1,WSW,20.7,-,N/A,Rain,Light Rain Showers,250,2013-08-20 04:06:00
2:15 PM,48.2,42.8,82,29.98,5.0,WSW,19.6,31.1,N/A,Rain,Light Rain Showers,240,2013-08-20 04:15:00
2:30 PM,50.0,41.0,71,29.95,6.2,WSW,12.7,-,N/A,,Mostly Cloudy,250,2013-08-20 04:30:00
3:00 PM,50,39,57,29.98,9,WSW,18.4,,,Rain,Light Rain Showers,250,2013-08-20 05:00:00
3:00 PM,50.0,39.2,66,29.95,6.2,WSW,18.4,-,N/A,Rain,Light Rain Showers,250,2013-08-20 05:00:00
3:30 PM,50.0,39.2,66,29.95,6.2,WSW,13.8,-,N/A,,Mostly Cloudy,240,2013-08-20 05:30:00
3:42 PM,48.2,41.0,76,29.98,5.0,WSW,18.4,31.1,N/A,Rain,Light Rain Showers,250,2013-08-20 05:42:00
4:00 PM,49,43,74,29.98,,WSW,13.8,,,,,250,2013-08-20 06:00:00
4:00 PM,48.2,42.8,82,29.98,6.2,WSW,13.8,-,N/A,,Mostly Cloudy,250,2013-08-20 06:00:00
4:30 PM,50.0,41.0,71,29.95,6.2,WSW,9.2,-,N/A,,Scattered Clouds,240,2013-08-20 06:30:00
5:00 PM,49,41,66,29.99,,SW,17.3,,,,,230,2013-08-20 07:00:00
5:00 PM,48.2,41.0,76,29.98,6.2,SW,17.3,-,N/A,,Mostly Cloudy,230,2013-08-20 07:00:00
5:30 PM,48.2,41.0,76,29.98,6.2,WSW,15.0,-,N/A,,Mostly Cloudy,240,2013-08-20 07:30:00
6:00 PM,48,41,70,30.00,9,West,10.4,,,Rain,Light Rain Showers,260,2013-08-20 08:00:00
6:00 PM,48.2,41.0,76,29.98,6.2,West,10.4,-,N/A,Rain,Light Rain Showers,260,2013-08-20 08:00:00
6:30 PM,48.2,41.0,76,29.98,6.2,West,13.8,-,N/A,,Mostly Cloudy,270,2013-08-20 08:30:00
7:00 PM,47,40,71,30.02,,WSW,11.5,,,,,250,2013-08-20 09:00:00
7:00 PM,46.4,41.0,81,30.01,6.2,WSW,11.5,-,N/A,Rain,Light Rain Showers,250,2013-08-20 09:00:00
7:30 PM,46.4,42.8,87,30.01,6.2,West,9.2,-,N/A,,Mostly Cloudy,260,2013-08-20 09:30:00
8:00 PM,46,43,84,30.03,,West,9.2,,,,,270,2013-08-20 10:00:00
8:00 PM,46.4,42.8,87,30.01,6.2,West,9.2,-,N/A,,Mostly Cloudy,270,2013-08-20 10:00:00
8:30 PM,46.4,41.0,81,30.01,6.2,West,11.5,-,N/A,,Mostly Cloudy,270,2013-08-20 10:30:00
9:00 PM,45,40,78,30.03,19,West,11.5,,,,Partly Cloudy,260,2013-08-20 11:00:00
9:00 PM,44.6,41.0,87,30.01,6.2,West,11.5,-,N/A,,Mostly Cloudy,260,2013-08-20 11:00:00
9:30 PM,44.6,39.2,81,30.01,-9999.0,West,12.7,-,N/A,,Clear,270,2013-08-20 11:30:00
10:00 PM,44,39,76,30.04,,West,11.5,,,,,280,2013-08-20 12:00:00
10:00 PM,42.8,39.2,87,30.01,-9999.0,West,11.5,-,N/A,,Clear,280,2013-08-20 12:00:00
10:30 PM,42.8,39.2,87,30.01,-9999.0,West,11.5,-,N/A,,Clear,280,2013-08-20 12:30:00
11:00 PM,43,39,79,30.04,,West,10.4,,,,,280,2013-08-20 13:00:00
11:00 PM,42.8,39.2,87,30.01,-9999.0,West,10.4,-,N/A,,Clear,280,2013-08-20 13:00:00
11:30 PM,42.8,39.2,87,30.01,6.2,WNW,10.4,-,N/A,,Scattered Clouds,300,2013-08-20 13:30:00